createdAt,value
2022-08-20T00:02:46.023Z,3.15
2022-08-20T00:05:34.517Z,3.88
2022-08-20T00:08:22.151Z,4.50
2022-08-20T00:11:10.331Z,4.38
2022-08-20T00:13:58.197Z,3.10
2022-08-20T00:16:44.997Z,3.25
2022-08-20T00:19:31.743Z,3.88
2022-08-20T00:22:18.607Z,3.10
2022-08-20T00:25:06.516Z,3.30
2022-08-20T00:27:53.292Z,4.13
2022-08-20T00:30:41.579Z,4.25
2022-08-20T00:33:28.323Z,3.47
2022-08-20T00:36:18.003Z,4.28
2022-08-20T00:39:04.815Z,4.07
2022-08-20T00:41:52.064Z,3.88
2022-08-20T00:44:44.120Z,4.78
2022-08-20T00:47:30.921Z,3.75
2022-08-20T00:50:22.052Z,2.92
2022-08-20T00:53:11.483Z,3.38
2022-08-20T00:55:58.257Z,3.75
2022-08-20T00:58:45.264Z,3.95
2022-08-20T01:01:34.528Z,4.90
2022-08-20T01:04:43.687Z,4.50
2022-08-20T01:07:33.468Z,3.78
2022-08-20T01:10:22.869Z,3.78
2022-08-20T01:13:11.409Z,3.65
2022-08-20T01:15:59.238Z,4.03
2022-08-20T01:18:48.153Z,3.58
2022-08-20T01:21:37.250Z,4.13
2022-08-20T01:24:30.062Z,4.70
2022-08-20T01:27:16.870Z,3.15
2022-08-20T01:30:06.825Z,3.72
2022-08-20T01:32:54.045Z,4.55
2022-08-20T01:35:41.838Z,4.80
2022-08-20T01:38:29.235Z,4.45
2022-08-20T01:41:15.973Z,4.28
2022-08-20T01:44:03.457Z,4.65
2022-08-20T01:46:51.919Z,5.07
2022-08-20T01:49:43.864Z,3.60
2022-08-20T01:52:36.854Z,3.90
2022-08-20T01:55:27.513Z,5.18
2022-08-20T01:58:14.420Z,4.10
2022-08-20T02:01:03.560Z,4.35
2022-08-20T02:03:53.877Z,3.65
2022-08-20T02:06:56.768Z,3.72
2022-08-20T02:09:46.348Z,3.97
2022-08-20T02:12:33.124Z,4.07
2022-08-20T02:15:19.878Z,4.13
2022-08-20T02:18:24.283Z,3.58
2022-08-20T02:21:11.067Z,5.05
2022-08-20T02:23:58.339Z,3.55
2022-08-20T02:26:45.302Z,3.55
2022-08-20T02:29:32.689Z,4.40
2022-08-20T02:32:24.314Z,4.50
2022-08-20T02:35:02.202Z,4.18
2022-08-20T02:37:29.132Z,3.55
2022-08-20T02:39:55.637Z,4.05
2022-08-20T02:42:22.112Z,3.90
2022-08-20T02:44:51.171Z,4.72
2022-08-20T02:47:20.009Z,3.40
2022-08-20T02:49:46.508Z,4.40
2022-08-20T02:52:15.098Z,3.95
2022-08-20T02:54:41.521Z,4.15
2022-08-20T02:57:12.932Z,3.00
2022-08-20T02:59:39.372Z,4.18
2022-08-20T03:02:05.951Z,4.55
2022-08-20T03:04:34.813Z,3.88
2022-08-20T03:07:01.346Z,4.43
2022-08-20T03:09:27.807Z,4.28
2022-08-20T03:11:56.284Z,4.85
2022-08-20T03:14:25.236Z,3.55
2022-08-20T03:16:52.001Z,4.60
2022-08-20T03:19:18.449Z,4.82
2022-08-20T03:21:45.054Z,4.75
2022-08-20T03:24:13.945Z,3.15
2022-08-20T03:26:40.528Z,3.83
2022-08-20T03:29:09.552Z,4.82
2022-08-20T03:31:36.282Z,4.95
2022-08-20T03:34:05.114Z,4.40
2022-08-20T03:36:31.758Z,4.35
2022-08-20T03:39:02.505Z,4.28
2022-08-20T03:41:32.236Z,4.75
2022-08-20T03:43:58.779Z,4.75
2022-08-20T03:46:25.248Z,4.88
2022-08-20T03:48:59.586Z,4.78
2022-08-20T03:51:27.389Z,4.55
2022-08-20T03:53:53.819Z,4.55
2022-08-20T03:56:20.252Z,4.45
2022-08-20T03:58:46.678Z,4.75
2022-08-20T04:01:44.228Z,4.55
2022-08-20T04:03:59.916Z,4.85
2022-08-20T04:06:27.690Z,4.57
2022-08-20T04:08:54.261Z,5.15
2022-08-20T04:11:23.735Z,4.38
2022-08-20T04:13:50.277Z,4.70
2022-08-20T04:16:17.711Z,4.88
2022-08-20T04:18:56.266Z,5.13
2022-08-20T04:21:32.732Z,4.95
2022-08-20T04:24:02.381Z,5.25
2022-08-20T04:26:31.609Z,4.72
2022-08-20T04:28:58.094Z,3.88
2022-08-20T04:31:33.213Z,5.50
2022-08-20T04:34:04.889Z,5.10
2022-08-20T04:36:31.405Z,4.38
2022-08-20T04:39:00.739Z,4.63
2022-08-20T04:41:27.543Z,4.53
2022-08-20T04:43:56.884Z,3.67
2022-08-20T04:46:28.781Z,4.35
2022-08-20T04:48:58.191Z,4.57
2022-08-20T04:51:24.917Z,4.35
2022-08-20T04:53:54.614Z,4.70
2022-08-20T04:56:23.910Z,3.95
2022-08-20T04:58:51.203Z,4.43
2022-08-20T05:01:17.769Z,4.00
2022-08-20T05:03:44.266Z,5.68
2022-08-20T05:06:13.584Z,4.63
2022-08-20T05:08:40.391Z,4.57
2022-08-20T05:11:33.072Z,4.95
2022-08-20T05:13:54.893Z,4.50
2022-08-20T05:16:24.406Z,3.95
2022-08-20T05:18:52.559Z,4.18
2022-08-20T05:21:20.008Z,4.25
2022-08-20T05:23:46.561Z,4.85
2022-08-20T05:26:15.113Z,4.30
2022-08-20T05:28:58.217Z,5.10
2022-08-20T05:31:33.359Z,4.70
2022-08-20T05:34:09.268Z,4.40
2022-08-20T05:37:15.295Z,3.95
2022-08-20T05:39:42.495Z,4.78
2022-08-20T05:42:09.054Z,4.90
2022-08-20T05:44:38.187Z,4.47
2022-08-20T05:47:07.127Z,5.05
2022-08-20T05:49:35.120Z,4.05
2022-08-20T05:52:01.817Z,4.85
2022-08-20T05:54:28.423Z,4.78
2022-08-20T05:56:55.376Z,4.50
2022-08-20T05:59:24.344Z,4.55
2022-08-20T06:01:53.201Z,4.70
2022-08-20T06:04:26.827Z,4.63
2022-08-20T06:07:13.103Z,5.90
2022-08-20T06:09:44.395Z,4.97
2022-08-20T06:12:14.975Z,5.07
2022-08-20T06:14:41.742Z,5.90
2022-08-20T06:17:15.299Z,5.38
2022-08-20T06:19:46.851Z,4.38
2022-08-20T06:22:19.480Z,5.05
2022-08-20T06:24:49.730Z,6.20
2022-08-20T06:27:19.655Z,5.82
2022-08-20T06:29:47.492Z,4.03
2022-08-20T06:32:16.870Z,5.05
2022-08-20T06:34:50.256Z,5.65
2022-08-20T06:37:23.526Z,5.72
2022-08-20T06:40:03.310Z,5.57
2022-08-20T06:44:56.503Z,5.13
2022-08-20T06:47:23.691Z,5.53
2022-08-20T06:49:50.685Z,5.78
2022-08-20T06:52:19.971Z,5.55
2022-08-20T06:54:56.554Z,4.80
2022-08-20T06:57:23.137Z,4.80
2022-08-20T06:59:54.184Z,6.45
2022-08-20T07:02:26.584Z,4.95
2022-08-20T07:04:57.032Z,5.13
2022-08-20T07:07:23.924Z,4.68
2022-08-20T07:10:01.799Z,6.25
2022-08-20T07:12:28.402Z,5.93
2022-08-20T07:14:57.318Z,5.32
2022-08-20T07:17:29.660Z,5.10
2022-08-20T07:19:56.248Z,4.65
2022-08-20T07:22:25.367Z,5.07
2022-08-20T07:24:52.351Z,4.60
2022-08-20T07:27:24.978Z,3.97
2022-08-20T07:30:15.078Z,3.45
2022-08-20T07:32:45.244Z,3.65
2022-08-20T07:35:22.282Z,3.22
2022-08-20T07:37:51.978Z,2.85
2022-08-20T07:40:27.509Z,3.70
2022-08-20T07:43:00.819Z,3.83
2022-08-20T07:45:31.207Z,3.60
2022-08-20T07:48:11.780Z,2.78
2022-08-20T07:50:39.271Z,3.45
2022-08-20T07:53:08.064Z,3.70
2022-08-20T07:55:34.963Z,3.53
2022-08-20T07:58:13.950Z,4.35
2022-08-20T08:00:40.890Z,3.72
2022-08-20T08:03:07.866Z,4.05
2022-08-20T08:05:38.177Z,3.95
2022-08-20T08:08:11.386Z,4.60
2022-08-20T08:10:42.399Z,4.68
2022-08-20T08:13:27.562Z,4.07
2022-08-20T08:16:01.570Z,4.00
2022-08-20T08:18:32.050Z,3.92
2022-08-20T08:20:59.794Z,4.05
2022-08-20T08:23:31.591Z,4.32
2022-08-20T08:26:01.347Z,4.90
2022-08-20T08:28:30.507Z,4.05
2022-08-20T08:30:57.421Z,5.53
2022-08-20T08:33:27.625Z,4.10
2022-08-20T08:36:04.418Z,4.68
2022-08-20T08:38:34.310Z,3.88
2022-08-20T08:41:14.044Z,4.22
2022-08-20T08:43:41.031Z,4.50
2022-08-20T08:46:10.963Z,3.72
2022-08-20T08:48:45.428Z,4.22
2022-08-20T08:51:16.243Z,4.30
2022-08-20T08:53:54.733Z,5.07
2022-08-20T08:56:26.843Z,3.83
2022-08-20T08:58:55.595Z,4.13
2022-08-20T09:01:53.750Z,4.05
2022-08-20T09:04:16.910Z,1.80
2022-08-20T09:06:53.488Z,3.35
2022-08-20T09:09:28.748Z,2.85
2022-08-20T09:12:04.282Z,3.75
2022-08-20T09:14:33.668Z,2.83
2022-08-20T09:17:00.244Z,4.32
2022-08-20T09:19:26.786Z,2.85
2022-08-20T09:21:53.398Z,3.42
2022-08-20T09:24:19.948Z,3.03
2022-08-20T09:26:46.551Z,3.33
2022-08-20T09:29:13.487Z,3.60
2022-08-20T09:31:41.558Z,3.22
2022-08-20T09:34:10.961Z,2.72
2022-08-20T09:36:37.522Z,2.75
2022-08-20T09:39:04.204Z,2.78
2022-08-20T09:41:34.663Z,2.92
2022-08-20T09:44:02.188Z,2.55
2022-08-20T09:46:28.806Z,2.47
2022-08-20T09:48:57.966Z,2.60
2022-08-20T09:51:24.598Z,2.80
2022-08-20T09:53:51.258Z,3.58
2022-08-20T09:56:18.294Z,3.63
2022-08-20T09:58:51.341Z,2.90
2022-08-20T10:01:20.331Z,2.92
2022-08-20T10:03:50.218Z,3.38
2022-08-20T10:06:20.721Z,3.35
2022-08-20T10:08:50.498Z,3.50
2022-08-20T10:11:19.527Z,3.08
2022-08-20T10:13:49.604Z,3.65
2022-08-20T10:16:18.427Z,3.65
2022-08-20T10:18:49.241Z,3.00
2022-08-20T10:21:20.752Z,3.95
2022-08-20T10:23:47.333Z,2.53
2022-08-20T10:26:15.017Z,3.08
2022-08-20T10:28:43.996Z,2.53
2022-08-20T10:31:12.086Z,3.50
2022-08-20T10:33:39.639Z,3.30
2022-08-20T10:36:20.050Z,3.55
2022-08-20T10:38:48.428Z,2.97
2022-08-20T10:41:14.953Z,3.33
2022-08-20T10:43:41.583Z,2.65
2022-08-20T10:46:09.082Z,3.10
2022-08-20T10:48:35.884Z,2.40
2022-08-20T10:51:05.057Z,3.28
2022-08-20T10:53:34.688Z,2.80
2022-08-20T10:56:03.758Z,2.20
2022-08-20T10:58:39.357Z,3.03
2022-08-20T11:01:09.444Z,2.05
2022-08-20T11:03:38.521Z,2.65
2022-08-20T11:06:05.335Z,3.50
2022-08-20T11:08:34.498Z,3.00
2022-08-20T11:11:04.481Z,3.88
2022-08-20T11:13:32.759Z,1.70
2022-08-20T11:16:02.758Z,2.13
2022-08-20T11:18:32.917Z,3.60
2022-08-20T11:21:02.098Z,3.65
2022-08-20T11:23:28.705Z,3.50
2022-08-20T11:26:01.678Z,3.40
2022-08-20T11:28:32.284Z,3.00
2022-08-20T11:31:00.291Z,2.25
2022-08-20T11:33:29.173Z,3.70
2022-08-20T11:35:55.886Z,2.72
2022-08-20T11:38:25.100Z,3.15
2022-08-20T11:40:54.052Z,3.13
2022-08-20T11:43:23.122Z,2.85
2022-08-20T11:45:56.079Z,2.03
2022-08-20T11:48:23.369Z,3.05
2022-08-20T11:50:52.827Z,2.35
2022-08-20T11:53:19.530Z,3.42
2022-08-20T11:55:48.696Z,2.80
2022-08-20T11:58:15.484Z,3.65
2022-08-20T12:00:44.170Z,3.45
2022-08-20T12:03:12.141Z,1.95
2022-08-20T12:05:45.005Z,2.47
2022-08-20T12:08:25.139Z,2.63
2022-08-20T12:10:57.485Z,3.10
2022-08-20T12:13:30.795Z,3.40
2022-08-20T12:16:17.658Z,3.55
2022-08-20T12:18:47.490Z,3.78
2022-08-20T12:21:17.645Z,3.20
2022-08-20T12:23:49.095Z,3.13
2022-08-20T12:26:22.550Z,3.33
2022-08-20T12:28:51.415Z,3.05
2022-08-20T12:31:17.991Z,2.83
2022-08-20T12:33:46.914Z,2.45
2022-08-20T12:36:16.022Z,2.72
2022-08-20T12:38:44.872Z,2.72
2022-08-20T12:41:13.756Z,3.58
2022-08-20T12:43:42.973Z,2.90
2022-08-20T12:46:09.524Z,2.53
2022-08-20T12:48:38.583Z,1.92
2022-08-20T12:51:05.154Z,2.20
2022-08-20T12:53:36.393Z,1.40
2022-08-20T12:56:05.365Z,2.15
2022-08-20T12:58:34.603Z,1.95
2022-08-20T13:01:06.074Z,2.47
2022-08-20T13:03:34.625Z,1.60
2022-08-20T13:06:16.188Z,1.95
2022-08-20T13:08:47.568Z,2.53
2022-08-20T13:11:16.396Z,3.05
2022-08-20T13:13:47.540Z,2.63
2022-08-20T13:16:19.036Z,2.63
2022-08-20T13:18:48.081Z,3.15
2022-08-20T13:21:23.793Z,2.38
2022-08-20T13:23:53.377Z,2.47
2022-08-20T13:26:22.116Z,2.20
2022-08-20T13:28:48.693Z,2.55
2022-08-20T13:31:15.234Z,2.28
2022-08-20T13:33:46.790Z,2.42
2022-08-20T13:36:13.459Z,2.10
2022-08-20T13:38:42.243Z,2.05
2022-08-20T13:41:08.859Z,1.60
2022-08-20T13:43:40.353Z,1.98
2022-08-20T13:46:09.078Z,1.70
2022-08-20T13:48:40.681Z,1.55
2022-08-20T13:51:09.765Z,1.55
2022-08-20T13:53:36.532Z,2.03
2022-08-20T13:56:04.010Z,2.08
2022-08-20T13:58:30.566Z,2.10
2022-08-20T14:01:00.758Z,2.33
2022-08-20T14:03:27.336Z,2.33
2022-08-20T14:05:56.950Z,1.90
2022-08-20T14:08:26.042Z,2.97
2022-08-20T14:10:55.080Z,2.55
2022-08-20T14:13:26.596Z,2.15
2022-08-20T14:15:54.232Z,2.47
2022-08-20T14:18:20.857Z,3.00
2022-08-20T14:20:50.192Z,2.45
2022-08-20T14:23:16.953Z,1.55
2022-08-20T14:25:50.019Z,2.58
2022-08-20T14:28:24.658Z,2.70
2022-08-20T14:30:53.949Z,2.80
2022-08-20T14:33:26.469Z,2.55
2022-08-20T14:35:55.663Z,2.83
2022-08-20T14:38:22.295Z,1.90
2022-08-20T14:40:50.232Z,2.65
2022-08-20T14:43:16.984Z,2.60
2022-08-20T14:45:43.511Z,1.90
2022-08-20T14:48:10.212Z,1.60
2022-08-20T14:50:37.490Z,2.20
2022-08-20T14:53:06.809Z,1.73
2022-08-20T14:55:37.294Z,1.75
2022-08-20T14:58:11.132Z,1.63
2022-08-20T15:00:41.043Z,0.98
2022-08-20T15:03:10.196Z,1.13
2022-08-20T15:05:39.661Z,1.48
2022-08-20T15:10:41.330Z,2.38
2022-08-20T15:13:08.790Z,1.48
2022-08-20T15:15:35.399Z,1.20
2022-08-20T15:18:04.322Z,1.85
2022-08-20T15:20:34.917Z,1.75
2022-08-20T15:23:01.898Z,1.15
2022-08-20T15:25:36.631Z,0.90
2022-08-20T15:28:09.108Z,1.10
2022-08-20T15:30:40.454Z,1.73
2022-08-20T15:33:10.298Z,0.97
2022-08-20T15:35:37.008Z,1.65
2022-08-20T15:38:03.774Z,1.42
2022-08-20T15:40:32.338Z,1.58
2022-08-20T15:43:02.907Z,0.98
2022-08-20T15:45:29.455Z,1.50
2022-08-20T15:48:20.744Z,1.10
2022-08-20T15:50:47.215Z,1.50
2022-08-20T15:53:33.851Z,1.45
2022-08-20T15:56:16.365Z,1.35
2022-08-20T16:01:43.842Z,1.63
2022-08-20T16:04:27.243Z,1.48
2022-08-20T16:07:02.643Z,1.40
2022-08-20T16:09:47.689Z,0.88
2022-08-20T16:12:32.508Z,0.70
2022-08-20T16:15:05.153Z,1.23
2022-08-20T16:17:45.914Z,1.10
2022-08-20T16:20:35.401Z,0.90
2022-08-20T16:23:04.899Z,1.25
2022-08-20T16:25:49.305Z,0.82
2022-08-20T16:28:23.891Z,0.57
2022-08-20T16:30:58.210Z,0.80
2022-08-20T16:33:50.517Z,1.55
2022-08-20T16:37:16.249Z,0.80
2022-08-20T16:39:54.671Z,0.50
2022-08-20T16:42:25.790Z,0.80
2022-08-20T16:44:54.831Z,0.50
2022-08-20T16:47:28.269Z,0.60
2022-08-20T16:50:06.794Z,0.57
2022-08-20T16:52:33.450Z,0.77
2022-08-20T16:55:00.039Z,1.00
2022-08-20T16:57:28.347Z,0.70
2022-08-20T17:00:15.771Z,0.88
2022-08-20T17:02:56.832Z,1.10
2022-08-20T17:05:27.623Z,0.95
2022-08-20T17:08:07.413Z,1.63
2022-08-20T17:10:40.464Z,1.45
2022-08-20T17:13:15.521Z,0.90
2022-08-20T17:15:55.166Z,1.40
2022-08-20T17:18:28.524Z,0.85
2022-08-20T17:21:01.729Z,0.88
2022-08-20T17:23:28.585Z,0.90
2022-08-20T17:25:59.129Z,0.55
2022-08-20T17:28:26.654Z,0.95
2022-08-20T17:30:56.279Z,1.30
2022-08-20T17:33:41.241Z,1.52
2022-08-20T17:36:24.082Z,1.27
2022-08-20T17:38:54.966Z,1.13
2022-08-20T17:41:28.121Z,1.88
2022-08-20T17:44:19.919Z,1.25
2022-08-20T17:46:49.622Z,1.60
2022-08-20T17:49:33.181Z,1.40
2022-08-20T17:52:04.041Z,1.30
2022-08-20T17:54:36.962Z,1.63
2022-08-20T17:57:09.953Z,1.45
2022-08-20T18:00:01.247Z,1.30
2022-08-20T18:02:32.292Z,1.42
2022-08-20T18:04:58.838Z,1.67
2022-08-20T18:07:35.882Z,1.70
2022-08-20T18:10:09.966Z,1.63
2022-08-20T18:12:39.516Z,1.60
2022-08-20T18:15:20.155Z,1.38
2022-08-20T18:18:03.493Z,1.60
2022-08-20T18:20:37.761Z,1.20
2022-08-20T18:23:12.327Z,1.20
2022-08-20T18:25:45.839Z,1.40
2022-08-20T18:28:18.346Z,1.30
2022-08-20T18:30:52.619Z,2.13
2022-08-20T18:33:33.584Z,1.75
2022-08-20T18:36:07.419Z,1.80
2022-08-20T18:38:37.335Z,1.70
2022-08-20T18:41:16.074Z,1.70
2022-08-20T18:43:50.044Z,1.70
2022-08-20T18:46:23.705Z,2.08
2022-08-20T18:49:01.983Z,1.75
2022-08-20T18:51:40.756Z,1.65
2022-08-20T18:54:07.733Z,1.63
2022-08-20T18:56:43.093Z,1.55
2022-08-20T18:59:15.092Z,1.23
2022-08-20T19:01:43.095Z,1.70
2022-08-20T19:04:26.700Z,2.20
2022-08-20T19:07:02.450Z,1.55
2022-08-20T19:09:50.789Z,1.85
2022-08-20T19:12:40.169Z,2.05
2022-08-20T19:15:18.730Z,1.98
2022-08-20T19:17:51.761Z,1.83
2022-08-20T19:20:26.593Z,2.05
2022-08-20T19:22:59.662Z,1.75
2022-08-20T19:25:31.325Z,1.80
2022-08-20T19:28:06.157Z,2.20
2022-08-20T19:30:38.785Z,1.85
2022-08-20T19:33:10.615Z,1.20
2022-08-20T19:35:41.561Z,1.73
2022-08-20T19:38:18.624Z,1.77
2022-08-20T19:40:46.073Z,1.45
2022-08-20T19:43:17.323Z,1.55
2022-08-20T19:45:56.684Z,2.20
2022-08-20T19:48:49.321Z,1.98
2022-08-20T19:51:53.437Z,1.73
2022-08-20T19:54:24.888Z,1.85
2022-08-20T19:56:57.466Z,1.77
2022-08-20T19:59:26.564Z,1.58
2022-08-20T20:02:01.586Z,1.75
2022-08-20T20:04:41.218Z,1.65
2022-08-20T20:07:29.057Z,1.80
2022-08-20T20:10:00.255Z,1.40
2022-08-20T20:12:33.360Z,1.70
2022-08-20T20:15:00.590Z,1.52
2022-08-20T20:17:31.562Z,2.38
2022-08-20T20:20:26.175Z,2.08
2022-08-20T20:22:55.422Z,1.98
2022-08-20T20:25:37.066Z,1.83
2022-08-20T20:28:21.744Z,1.80
2022-08-20T20:30:48.998Z,1.90
2022-08-20T20:33:24.387Z,1.95
2022-08-20T20:36:06.874Z,2.00
2022-08-20T20:38:37.935Z,1.83
2022-08-20T20:41:09.272Z,2.05
2022-08-20T20:43:42.069Z,1.30
2022-08-20T20:46:23.668Z,1.75
2022-08-20T20:48:52.815Z,1.80
2022-08-20T20:51:28.941Z,2.47
2022-08-20T20:54:01.790Z,1.55
2022-08-20T20:56:30.530Z,1.42
2022-08-20T20:58:57.088Z,1.92
2022-08-20T21:01:47.932Z,1.27
2022-08-20T21:04:32.504Z,1.83
2022-08-20T21:07:22.103Z,1.45
2022-08-20T21:10:09.127Z,1.50
2022-08-20T21:12:59.403Z,1.48
2022-08-20T21:15:46.486Z,2.20
2022-08-20T21:18:36.880Z,1.45
2022-08-20T21:21:28.400Z,1.42
2022-08-20T21:24:15.374Z,1.75
2022-08-20T21:27:03.894Z,1.80
2022-08-20T21:29:51.189Z,1.35
2022-08-20T21:32:40.350Z,1.90
2022-08-20T21:35:27.670Z,1.60
2022-08-20T21:38:15.281Z,2.13
2022-08-20T21:41:04.306Z,1.50
2022-08-20T21:43:55.126Z,1.65
2022-08-20T21:46:45.368Z,1.63
2022-08-20T21:49:34.772Z,1.45
2022-08-20T21:52:24.178Z,1.73
2022-08-20T21:55:14.565Z,1.67
2022-08-20T21:58:04.376Z,2.08
2022-08-20T22:00:56.632Z,1.90
2022-08-20T22:03:43.571Z,3.50
2022-08-20T22:06:31.246Z,2.75
2022-08-20T22:09:18.793Z,2.13
2022-08-20T22:12:10.151Z,4.13
2022-08-20T22:14:57.205Z,2.38
2022-08-20T22:17:44.087Z,3.10
2022-08-20T22:20:31.138Z,2.38
2022-08-20T22:23:20.485Z,3.15
2022-08-20T22:26:08.483Z,4.07
2022-08-20T22:28:55.776Z,3.90
2022-08-20T22:31:43.350Z,2.50
2022-08-20T22:34:33.578Z,2.45
2022-08-20T22:37:20.741Z,3.22
2022-08-20T22:40:08.318Z,2.65
2022-08-20T22:42:55.446Z,3.00
2022-08-20T22:45:46.309Z,3.08
2022-08-20T22:48:33.290Z,2.58
2022-08-20T22:51:29.015Z,2.67
2022-08-20T22:54:22.478Z,2.88
2022-08-20T22:57:09.468Z,4.63
2022-08-20T22:59:57.727Z,4.47
2022-08-20T23:02:50.565Z,4.63
2022-08-20T23:05:38.220Z,5.25
2022-08-20T23:08:25.292Z,4.25
2022-08-20T23:11:14.135Z,3.80
2022-08-20T23:14:01.058Z,3.30
2022-08-20T23:16:56.074Z,3.35
2022-08-20T23:19:46.009Z,3.67
2022-08-20T23:22:32.992Z,2.92
2022-08-20T23:25:20.085Z,2.50
2022-08-20T23:28:07.287Z,2.35
2022-08-20T23:30:54.317Z,2.70
2022-08-20T23:33:44.678Z,2.38
2022-08-20T23:36:32.105Z,3.22
2022-08-20T23:39:19.569Z,2.95
2022-08-20T23:42:06.520Z,3.03
2022-08-20T23:44:53.421Z,2.22
2022-08-20T23:47:40.794Z,3.00
2022-08-20T23:50:30.289Z,2.22
2022-08-20T23:53:17.173Z,2.53
2022-08-20T23:56:05.001Z,2.90
2022-08-20T23:58:51.990Z,3.05
